createdAt,value
2022-11-27T00:01:34.308Z,98039.00
2022-11-27T00:04:01.196Z,98024.00
2022-11-27T00:06:29.678Z,98021.00
2022-11-27T00:08:59.419Z,98023.00
2022-11-27T00:11:28.787Z,98000.00
2022-11-27T00:13:56.322Z,98005.00
2022-11-27T00:16:24.760Z,98012.00
2022-11-27T00:18:52.171Z,97998.00
2022-11-27T00:21:24.333Z,97997.00
2022-11-27T00:23:52.879Z,97985.00
2022-11-27T00:26:20.389Z,97986.00
2022-11-27T00:28:47.533Z,97986.00
2022-11-27T00:31:19.780Z,97981.00
2022-11-27T00:33:47.230Z,97981.00
2022-11-27T00:36:15.412Z,97983.00
2022-11-27T00:38:42.873Z,97979.00
2022-11-27T00:41:31.216Z,97976.00
2022-11-27T00:43:58.476Z,97984.00
2022-11-27T00:46:30.035Z,97981.00
2022-11-27T00:48:59.314Z,97994.00
2022-11-27T00:51:27.848Z,97996.00
2022-11-27T00:53:55.926Z,97991.00
2022-11-27T00:56:29.671Z,97990.00
2022-11-27T00:58:56.929Z,97991.00
2022-11-27T01:01:32.279Z,97994.00
2022-11-27T01:04:01.462Z,97991.00
2022-11-27T01:06:29.227Z,97992.00
2022-11-27T01:08:57.374Z,97996.00
2022-11-27T01:11:28.537Z,97979.00
2022-11-27T01:14:02.414Z,97981.00
2022-11-27T01:16:31.816Z,97978.00
2022-11-27T01:19:00.905Z,97977.00
2022-11-27T01:21:32.159Z,97972.00
2022-11-27T01:24:00.322Z,97963.00
2022-11-27T01:26:27.594Z,97969.00
2022-11-27T01:28:56.074Z,97973.00
2022-11-27T01:31:30.851Z,97957.00
2022-11-27T01:34:01.728Z,97956.00
2022-11-27T01:36:29.630Z,97954.00
2022-11-27T01:38:56.733Z,97970.00
2022-11-27T01:41:36.735Z,97962.00
2022-11-27T01:44:23.342Z,97964.00
2022-11-27T01:47:02.137Z,97955.00
2022-11-27T01:49:38.822Z,97954.00
2022-11-27T01:52:12.176Z,97957.00
2022-11-27T01:54:51.094Z,97954.00
2022-11-27T01:57:29.005Z,97964.00
2022-11-27T01:59:59.152Z,97956.00
2022-11-27T02:02:26.354Z,97955.00
2022-11-27T02:04:54.862Z,97957.00
2022-11-27T02:07:21.942Z,97941.00
2022-11-27T02:09:48.705Z,97942.00
2022-11-27T02:12:28.253Z,97949.00
2022-11-27T02:15:25.243Z,97946.00
2022-11-27T02:18:48.212Z,97944.00
2022-11-27T02:21:49.774Z,97939.00
2022-11-27T02:24:31.470Z,97950.00
2022-11-27T02:27:05.554Z,97938.00
2022-11-27T02:29:36.661Z,97940.00
2022-11-27T02:32:29.601Z,97936.00
2022-11-27T02:35:47.486Z,97930.00
2022-11-27T02:39:15.688Z,97930.00
2022-11-27T02:42:17.021Z,97930.00
2022-11-27T02:44:55.568Z,97922.00
2022-11-27T02:47:23.009Z,97915.00
2022-11-27T02:49:52.661Z,97920.00
2022-11-27T02:52:20.481Z,97919.00
2022-11-27T02:54:50.123Z,97913.00
2022-11-27T02:57:20.182Z,97920.00
2022-11-27T02:59:48.054Z,97914.00
2022-11-27T03:02:23.551Z,97916.00
2022-11-27T03:04:55.104Z,97912.00
2022-11-27T03:07:44.963Z,97905.00
2022-11-27T03:10:31.178Z,97895.00
2022-11-27T03:13:00.413Z,97893.00
2022-11-27T03:15:39.164Z,97882.00
2022-11-27T03:18:37.387Z,97884.00
2022-11-27T03:21:28.700Z,97878.00
2022-11-27T03:23:55.604Z,97873.00
2022-11-27T03:26:22.372Z,97873.00
2022-11-27T03:28:51.127Z,97863.00
2022-11-27T03:31:18.093Z,97855.00
2022-11-27T03:33:45.061Z,97860.00
2022-11-27T03:36:19.120Z,97863.00
2022-11-27T03:38:47.937Z,97854.00
2022-11-27T03:41:43.796Z,97855.00
2022-11-27T03:44:37.844Z,97855.00
2022-11-27T03:47:49.668Z,97848.00
2022-11-27T03:51:05.926Z,97854.00
2022-11-27T03:53:56.763Z,97845.00
2022-11-27T03:56:49.850Z,97854.00
2022-11-27T03:59:42.462Z,97854.00
2022-11-27T04:02:50.268Z,97861.00
2022-11-27T04:05:20.959Z,97848.00
2022-11-27T04:07:50.339Z,97847.00
2022-11-27T04:10:18.702Z,97842.00
2022-11-27T04:12:47.501Z,97847.00
2022-11-27T04:15:17.007Z,97851.00
2022-11-27T04:17:45.127Z,97852.00
2022-11-27T04:20:27.964Z,97860.00
2022-11-27T04:22:54.938Z,97864.00
2022-11-27T04:25:22.300Z,97864.00
2022-11-27T04:27:50.075Z,97871.00
2022-11-27T04:30:18.233Z,97867.00
2022-11-27T04:32:44.986Z,97852.00
2022-11-27T04:35:11.820Z,97845.00
2022-11-27T04:37:38.552Z,97848.00
2022-11-27T04:40:06.571Z,97840.00
2022-11-27T04:42:33.338Z,97843.00
2022-11-27T04:45:00.181Z,97842.00
2022-11-27T04:47:27.202Z,97843.00
2022-11-27T04:49:53.914Z,97850.00
2022-11-27T04:52:20.653Z,97838.00
2022-11-27T04:54:47.365Z,97831.00
2022-11-27T04:57:14.277Z,97830.00
2022-11-27T04:59:41.112Z,97842.00
2022-11-27T05:02:07.898Z,97835.00
2022-11-27T05:04:34.681Z,97831.00
2022-11-27T05:07:01.417Z,97832.00
2022-11-27T05:09:28.391Z,97831.00
2022-11-27T05:11:55.180Z,97824.00
2022-11-27T05:14:24.066Z,97826.00
2022-11-27T05:16:53.542Z,97814.00
2022-11-27T05:19:22.971Z,97814.00
2022-11-27T05:21:50.607Z,97810.00
2022-11-27T05:24:19.661Z,97803.00
2022-11-27T05:26:47.430Z,97823.00
2022-11-27T05:29:14.910Z,97818.00
2022-11-27T05:31:42.637Z,97822.00
2022-11-27T05:34:10.085Z,97821.00
2022-11-27T05:36:37.583Z,97824.00
2022-11-27T05:39:07.164Z,97834.00
2022-11-27T05:41:36.146Z,97834.00
2022-11-27T05:44:03.493Z,97838.00
2022-11-27T05:46:30.471Z,97833.00
2022-11-27T05:48:57.280Z,97820.00
2022-11-27T05:51:24.764Z,97811.00
2022-11-27T05:53:51.623Z,97809.00
2022-11-27T05:56:19.236Z,97811.00
2022-11-27T05:58:48.007Z,97818.00
2022-11-27T06:01:17.406Z,97809.00
2022-11-27T06:03:44.433Z,97810.00
2022-11-27T06:06:15.610Z,97809.00
2022-11-27T06:08:43.357Z,97805.00
2022-11-27T06:11:18.161Z,97799.00
2022-11-27T06:13:46.510Z,97778.00
2022-11-27T06:16:20.558Z,97762.00
2022-11-27T06:18:54.023Z,97760.00
2022-11-27T06:21:22.333Z,97745.00
2022-11-27T06:23:49.679Z,97735.00
2022-11-27T06:26:23.826Z,97727.00
2022-11-27T06:28:51.010Z,97727.00
2022-11-27T06:31:24.598Z,97726.00
2022-11-27T06:33:53.994Z,97729.00
2022-11-27T06:36:23.866Z,97730.00
2022-11-27T06:38:50.605Z,97744.00
2022-11-27T06:41:22.009Z,97730.00
2022-11-27T06:43:48.656Z,97728.00
2022-11-27T06:46:18.960Z,97735.00
2022-11-27T06:48:48.552Z,97735.00
2022-11-27T06:51:23.456Z,97744.00
2022-11-27T06:53:51.264Z,97748.00
2022-11-27T06:56:22.212Z,97768.00
2022-11-27T06:58:55.878Z,97782.00
2022-11-27T07:01:24.525Z,97779.00
2022-11-27T07:03:51.554Z,97787.00
2022-11-27T07:06:22.262Z,97782.00
2022-11-27T07:08:49.529Z,97775.00
2022-11-27T07:11:25.929Z,97772.00
2022-11-27T07:13:57.006Z,97760.00
2022-11-27T07:16:24.973Z,97766.00
2022-11-27T07:18:55.417Z,97767.00
2022-11-27T07:21:22.638Z,97765.00
2022-11-27T07:23:49.567Z,97752.00
2022-11-27T07:26:27.665Z,97745.00
2022-11-27T07:28:54.553Z,97730.00
2022-11-27T07:31:28.125Z,97728.00
2022-11-27T07:33:55.872Z,97733.00
2022-11-27T07:36:26.621Z,97735.00
2022-11-27T07:38:53.471Z,97748.00
2022-11-27T07:41:20.952Z,97754.00
2022-11-27T07:43:48.155Z,97749.00
2022-11-27T07:46:19.852Z,97743.00
2022-11-27T07:48:47.193Z,97733.00
2022-11-27T07:51:18.160Z,97733.00
2022-11-27T07:53:45.282Z,97746.00
2022-11-27T07:56:15.786Z,97743.00
2022-11-27T07:58:43.018Z,97751.00
2022-11-27T08:01:13.515Z,97746.00
2022-11-27T08:03:40.784Z,97751.00
2022-11-27T08:06:21.816Z,97767.00
2022-11-27T08:08:49.634Z,97753.00
2022-11-27T08:11:32.838Z,97743.00
2022-11-27T08:14:05.804Z,97740.00
2022-11-27T08:16:34.631Z,97734.00
2022-11-27T08:19:02.037Z,97732.00
2022-11-27T08:21:31.217Z,97728.00
2022-11-27T08:23:58.154Z,97736.00
2022-11-27T08:26:27.740Z,97731.00
2022-11-27T08:28:55.830Z,97723.00
2022-11-27T08:31:23.265Z,97716.00
2022-11-27T08:33:50.513Z,97699.00
2022-11-27T08:36:18.428Z,97691.00
2022-11-27T08:38:46.589Z,97689.00
2022-11-27T08:41:13.446Z,97672.00
2022-11-27T08:43:40.248Z,97669.00
2022-11-27T08:46:07.901Z,97666.00
2022-11-27T08:48:35.637Z,97673.00
2022-11-27T08:51:08.209Z,97671.00
2022-11-27T08:53:37.471Z,97665.00
2022-11-27T08:56:19.815Z,97668.00
2022-11-27T08:58:47.239Z,97680.00
2022-11-27T09:01:26.426Z,97684.00
2022-11-27T09:03:53.417Z,97677.00
2022-11-27T09:06:24.024Z,97687.00
2022-11-27T09:08:51.439Z,97686.00
2022-11-27T09:11:20.634Z,97694.00
2022-11-27T09:13:48.345Z,97691.00
2022-11-27T09:16:18.921Z,97694.00
2022-11-27T09:18:47.819Z,97707.00
2022-11-27T09:21:17.110Z,97688.00
2022-11-27T09:23:44.254Z,97698.00
2022-11-27T09:26:14.770Z,97690.00
2022-11-27T09:28:43.069Z,97686.00
2022-11-27T09:31:13.240Z,97682.00
2022-11-27T09:33:41.751Z,97673.00
2022-11-27T09:36:13.099Z,97665.00
2022-11-27T09:38:40.740Z,97676.00
2022-11-27T09:41:44.736Z,97674.00
2022-11-27T09:45:08.671Z,97675.00
2022-11-27T09:47:49.828Z,97671.00
2022-11-27T09:50:26.452Z,97669.00
2022-11-27T09:53:19.810Z,97669.00
2022-11-27T09:55:50.239Z,97676.00
2022-11-27T09:59:03.687Z,97674.00
2022-11-27T10:01:42.044Z,97674.00
2022-11-27T10:04:17.102Z,97667.00
2022-11-27T10:07:42.035Z,97663.00
2022-11-27T10:11:02.771Z,97673.00
2022-11-27T10:14:08.065Z,97655.00
2022-11-27T10:16:44.970Z,97636.00
2022-11-27T10:19:46.672Z,97625.00
2022-11-27T10:22:34.077Z,97607.00
2022-11-27T10:25:20.584Z,97601.00
2022-11-27T10:28:31.412Z,97603.00
2022-11-27T10:31:12.161Z,97584.00
2022-11-27T10:33:46.453Z,97594.00
2022-11-27T10:36:26.167Z,97589.00
2022-11-27T10:38:55.371Z,97582.00
2022-11-27T10:44:54.664Z,97594.00
2022-11-27T10:47:24.143Z,97598.00
2022-11-27T10:49:51.466Z,97597.00
2022-11-27T10:52:20.207Z,97594.00
2022-11-27T10:54:56.365Z,97591.00
2022-11-27T10:57:34.900Z,97586.00
2022-11-27T11:00:24.941Z,97571.00
2022-11-27T11:03:05.827Z,97564.00
2022-11-27T11:05:51.049Z,97542.00
2022-11-27T11:08:21.594Z,97538.00
2022-11-27T11:11:06.717Z,97541.00
2022-11-27T11:13:47.500Z,97542.00
2022-11-27T11:16:24.001Z,97540.00
2022-11-27T11:18:54.321Z,97535.00
2022-11-27T11:21:38.252Z,97530.00
2022-11-27T11:24:06.943Z,97537.00
2022-11-27T11:26:45.178Z,97527.00
2022-11-27T11:29:37.471Z,97514.00
2022-11-27T11:32:14.245Z,97517.00
2022-11-27T11:34:47.857Z,97509.00
2022-11-27T11:37:35.554Z,97514.00
2022-11-27T11:40:19.876Z,97495.00
2022-11-27T11:42:58.755Z,97495.00
2022-11-27T11:45:32.855Z,97494.00
2022-11-27T11:48:15.503Z,97499.00
2022-11-27T11:51:12.886Z,97485.00
2022-11-27T11:53:45.348Z,97483.00
2022-11-27T11:56:45.204Z,97471.00
2022-11-27T11:59:50.484Z,97467.00
2022-11-27T12:02:56.666Z,97456.00
2022-11-27T12:06:08.852Z,97442.00
2022-11-27T12:08:51.606Z,97442.00
2022-11-27T12:11:45.580Z,97441.00
2022-11-27T12:14:25.810Z,97435.00
2022-11-27T12:17:28.697Z,97441.00
2022-11-27T12:20:21.897Z,97429.00
2022-11-27T12:23:18.134Z,97421.00
2022-11-27T12:26:07.310Z,97428.00
2022-11-27T12:29:25.182Z,97429.00
2022-11-27T12:32:26.705Z,97426.00
2022-11-27T12:35:01.818Z,97411.00
2022-11-27T12:37:53.422Z,97413.00
2022-11-27T12:40:38.753Z,97412.00
2022-11-27T12:43:27.315Z,97399.00
2022-11-27T12:46:09.885Z,97398.00
2022-11-27T12:48:46.884Z,97389.00
2022-11-27T12:51:24.682Z,97384.00
2022-11-27T12:54:11.097Z,97377.00
2022-11-27T12:56:58.979Z,97376.00
2022-11-27T12:59:58.487Z,97375.00
2022-11-27T13:02:46.607Z,97367.00
2022-11-27T13:05:22.947Z,97362.00
2022-11-27T13:08:15.526Z,97350.00
2022-11-27T13:10:51.707Z,97354.00
2022-11-27T13:14:15.080Z,97345.00
2022-11-27T13:17:04.176Z,97346.00
2022-11-27T13:20:01.871Z,97343.00
2022-11-27T13:22:35.784Z,97338.00
2022-11-27T13:25:25.293Z,97333.00
2022-11-27T13:30:44.325Z,97332.00
2022-11-27T13:33:35.288Z,97334.00
2022-11-27T13:36:05.319Z,97329.00
2022-11-27T13:38:34.194Z,97332.00
2022-11-27T13:41:05.536Z,97318.00
2022-11-27T13:43:43.798Z,97322.00
2022-11-27T13:46:13.100Z,97305.00
2022-11-27T13:48:47.575Z,97291.00
2022-11-27T13:51:28.328Z,97292.00
2022-11-27T13:54:15.801Z,97290.00
2022-11-27T13:56:42.874Z,97283.00
2022-11-27T13:59:22.411Z,97271.00
2022-11-27T14:02:09.080Z,97279.00
2022-11-27T14:04:54.352Z,97264.00
2022-11-27T14:07:24.057Z,97255.00
2022-11-27T14:09:56.405Z,97260.00
2022-11-27T14:12:30.736Z,97244.00
2022-11-27T14:15:17.660Z,97263.00
2022-11-27T14:17:47.809Z,97256.00
2022-11-27T14:20:17.770Z,97258.00
2022-11-27T14:23:12.469Z,97258.00
2022-11-27T14:25:40.328Z,97258.00
2022-11-27T14:28:21.318Z,97245.00
2022-11-27T14:30:52.069Z,97254.00
2022-11-27T14:33:26.844Z,97238.00
2022-11-27T14:36:00.599Z,97245.00
2022-11-27T14:38:29.631Z,97261.00
2022-11-27T14:41:20.204Z,97249.00
2022-11-27T14:43:47.243Z,97248.00
2022-11-27T14:46:20.546Z,97254.00
2022-11-27T14:48:54.711Z,97242.00
2022-11-27T14:51:24.480Z,97244.00
2022-11-27T14:53:59.259Z,97252.00
2022-11-27T14:56:35.682Z,97256.00
2022-11-27T14:59:03.436Z,97248.00
2022-11-27T15:01:34.317Z,97252.00
2022-11-27T15:04:05.758Z,97238.00
2022-11-27T15:06:40.209Z,97237.00
2022-11-27T15:09:30.763Z,97230.00
2022-11-27T15:12:04.346Z,97227.00
2022-11-27T15:14:31.279Z,97238.00
2022-11-27T15:16:58.577Z,97243.00
2022-11-27T15:19:33.960Z,97242.00
2022-11-27T15:22:01.555Z,97238.00
2022-11-27T15:24:36.994Z,97248.00
2022-11-27T15:27:18.046Z,97235.00
2022-11-27T15:30:07.642Z,97226.00
2022-11-27T15:32:53.617Z,97230.00
2022-11-27T15:35:29.826Z,97217.00
2022-11-27T15:37:58.080Z,97211.00
2022-11-27T15:40:37.134Z,97206.00
2022-11-27T15:43:15.090Z,97203.00
2022-11-27T15:45:44.141Z,97199.00
2022-11-27T15:48:19.236Z,97196.00
2022-11-27T15:50:51.404Z,97187.00
2022-11-27T15:53:18.916Z,97188.00
2022-11-27T15:55:45.675Z,97188.00
2022-11-27T15:58:12.436Z,97178.00
2022-11-27T16:00:40.468Z,97175.00
2022-11-27T16:03:07.287Z,97174.00
2022-11-27T16:05:34.015Z,97183.00
2022-11-27T16:08:00.935Z,97174.00
2022-11-27T16:10:27.792Z,97181.00
2022-11-27T16:12:55.422Z,97183.00
2022-11-27T16:15:23.536Z,97175.00
2022-11-27T16:17:51.150Z,97172.00
2022-11-27T16:20:17.916Z,97174.00
2022-11-27T16:22:44.859Z,97166.00
2022-11-27T16:25:11.588Z,97154.00
2022-11-27T16:27:38.437Z,97158.00
2022-11-27T16:30:06.214Z,97154.00
2022-11-27T16:32:33.026Z,97154.00
2022-11-27T16:34:59.761Z,97154.00
2022-11-27T16:37:26.531Z,97151.00
2022-11-27T16:39:53.247Z,97130.00
2022-11-27T16:42:19.982Z,97142.00
2022-11-27T16:44:47.411Z,97125.00
2022-11-27T16:47:15.089Z,97124.00
2022-11-27T16:49:42.069Z,97120.00
2022-11-27T16:52:11.074Z,97112.00
2022-11-27T16:54:38.233Z,97114.00
2022-11-27T16:57:05.187Z,97104.00
2022-11-27T16:59:32.050Z,97112.00
2022-11-27T17:01:58.889Z,97106.00
2022-11-27T17:04:25.700Z,97096.00
2022-11-27T17:06:52.497Z,97099.00
2022-11-27T17:09:20.266Z,97084.00
2022-11-27T17:11:49.060Z,97084.00
2022-11-27T17:14:16.707Z,97074.00
2022-11-27T17:16:43.785Z,97070.00
2022-11-27T17:19:13.558Z,97060.00
2022-11-27T17:21:40.886Z,97058.00
2022-11-27T17:24:15.292Z,97053.00
2022-11-27T17:26:43.986Z,97042.00
2022-11-27T17:29:13.385Z,97043.00
2022-11-27T17:31:40.320Z,97034.00
2022-11-27T17:34:08.058Z,97042.00
2022-11-27T17:36:37.490Z,97035.00
2022-11-27T17:39:05.628Z,97031.00
2022-11-27T17:41:32.999Z,97028.00
2022-11-27T17:43:59.862Z,97020.00
2022-11-27T17:46:28.755Z,97022.00
2022-11-27T17:48:58.904Z,97005.00
2022-11-27T17:51:27.389Z,97006.00
2022-11-27T17:53:54.215Z,97003.00
2022-11-27T17:56:21.446Z,97009.00
2022-11-27T17:58:48.390Z,97002.00
2022-11-27T18:01:19.546Z,97003.00
2022-11-27T18:03:47.314Z,97000.00
2022-11-27T18:06:17.769Z,96998.00
2022-11-27T18:08:46.669Z,97001.00
2022-11-27T18:11:20.842Z,97001.00
2022-11-27T18:13:48.566Z,97001.00
2022-11-27T18:16:23.604Z,96998.00
2022-11-27T18:18:51.376Z,96991.00
2022-11-27T18:21:20.602Z,96990.00
2022-11-27T18:24:21.497Z,96992.00
2022-11-27T18:27:06.515Z,96987.00
2022-11-27T18:29:23.511Z,96982.00
2022-11-27T18:31:51.028Z,96975.00
2022-11-27T18:34:18.178Z,96973.00
2022-11-27T18:36:45.843Z,96973.00
2022-11-27T18:39:13.200Z,96974.00
2022-11-27T18:41:40.840Z,96973.00
2022-11-27T18:44:07.680Z,96967.00
2022-11-27T18:46:34.657Z,96955.00
2022-11-27T18:49:01.551Z,96950.00
2022-11-27T18:51:28.290Z,96957.00
2022-11-27T18:53:56.398Z,96944.00
2022-11-27T18:56:27.481Z,96940.00
2022-11-27T18:58:55.220Z,96941.00
2022-11-27T19:01:27.228Z,96933.00
2022-11-27T19:03:54.587Z,96936.00
2022-11-27T19:06:24.664Z,96929.00
2022-11-27T19:08:51.702Z,96942.00
2022-11-27T19:11:23.442Z,96945.00
2022-11-27T19:13:53.554Z,96935.00
2022-11-27T19:16:31.223Z,96935.00
2022-11-27T19:18:59.980Z,96919.00
2022-11-27T19:21:29.738Z,96932.00
2022-11-27T19:23:59.280Z,96929.00
2022-11-27T19:26:35.601Z,96936.00
2022-11-27T19:29:07.746Z,96932.00
2022-11-27T19:31:37.608Z,96936.00
2022-11-27T19:34:06.205Z,96939.00
2022-11-27T19:36:35.597Z,96933.00
2022-11-27T19:39:15.578Z,96931.00
2022-11-27T19:41:43.292Z,96934.00
2022-11-27T19:44:12.641Z,96921.00
2022-11-27T19:46:40.857Z,96924.00
2022-11-27T19:49:14.565Z,96917.00
2022-11-27T19:51:41.932Z,96912.00
2022-11-27T19:54:12.962Z,96925.00
2022-11-27T19:56:42.141Z,96921.00
2022-11-27T19:59:10.844Z,96919.00
2022-11-27T20:01:40.040Z,96912.00
2022-11-27T20:04:07.743Z,96918.00
2022-11-27T20:06:34.490Z,96905.00
2022-11-27T20:09:05.244Z,96897.00
2022-11-27T20:11:34.850Z,96917.00
2022-11-27T20:14:04.209Z,96908.00
2022-11-27T20:16:32.037Z,96897.00
2022-11-27T20:18:58.901Z,96899.00
2022-11-27T20:21:26.811Z,96895.00
2022-11-27T20:23:55.260Z,96899.00
2022-11-27T20:26:25.969Z,96884.00
2022-11-27T20:28:54.330Z,96886.00
2022-11-27T20:31:25.548Z,96880.00
2022-11-27T20:33:55.588Z,96868.00
2022-11-27T20:36:23.457Z,96876.00
2022-11-27T20:38:52.103Z,96873.00
2022-11-27T20:41:20.724Z,96863.00
2022-11-27T20:43:48.063Z,96860.00
2022-11-27T20:46:16.435Z,96863.00
2022-11-27T20:48:47.115Z,96857.00
2022-11-27T20:51:17.950Z,96864.00
2022-11-27T20:53:47.054Z,96853.00
2022-11-27T20:56:16.522Z,96859.00
2022-11-27T20:58:45.122Z,96856.00
2022-11-27T21:01:24.676Z,96846.00
2022-11-27T21:03:53.470Z,96840.00
2022-11-27T21:06:25.739Z,96852.00
2022-11-27T21:08:53.402Z,96835.00
2022-11-27T21:11:25.238Z,96844.00
2022-11-27T21:14:01.924Z,96847.00
2022-11-27T21:16:31.976Z,96855.00
2022-11-27T21:19:06.512Z,96854.00
2022-11-27T21:21:34.419Z,96866.00
2022-11-27T21:24:01.480Z,96861.00
2022-11-27T21:26:28.645Z,96851.00
2022-11-27T21:28:55.634Z,96846.00
2022-11-27T21:31:25.686Z,96838.00
2022-11-27T21:34:03.612Z,96830.00
2022-11-27T21:36:34.986Z,96826.00
2022-11-27T21:39:02.700Z,96822.00
2022-11-27T21:41:31.576Z,96813.00
2022-11-27T21:44:01.034Z,96817.00
2022-11-27T21:46:29.074Z,96812.00
2022-11-27T21:48:59.536Z,96810.00
2022-11-27T21:51:29.237Z,96802.00
2022-11-27T21:53:58.023Z,96791.00
2022-11-27T21:56:27.738Z,96791.00
2022-11-27T22:00:19.959Z,96782.00
2022-11-27T22:03:35.016Z,96789.00
2022-11-27T22:10:33.567Z,96774.00
2022-11-27T22:20:28.446Z,96776.00
2022-11-27T22:26:36.657Z,96783.00
2022-11-27T22:29:03.638Z,96786.00
2022-11-27T22:31:32.911Z,96784.00
2022-11-27T22:34:00.658Z,96784.00
2022-11-27T22:36:35.233Z,96768.00
2022-11-27T22:39:06.442Z,96769.00
2022-11-27T22:41:37.054Z,96759.00
2022-11-27T22:44:13.786Z,96759.00
2022-11-27T22:46:42.155Z,96765.00
2022-11-27T22:49:13.248Z,96767.00
2022-11-27T22:51:40.630Z,96767.00
2022-11-27T22:54:11.169Z,96771.00
2022-11-27T22:56:38.077Z,96762.00
2022-11-27T22:59:35.188Z,96765.00
2022-11-27T23:01:53.678Z,96760.00
2022-11-27T23:04:20.398Z,96771.00
2022-11-27T23:06:48.441Z,96764.00
2022-11-27T23:09:17.997Z,96760.00
2022-11-27T23:11:46.270Z,96758.00
2022-11-27T23:14:13.444Z,96760.00
2022-11-27T23:16:40.276Z,96764.00
2022-11-27T23:19:07.047Z,96757.00
2022-11-27T23:21:37.252Z,96757.00
2022-11-27T23:24:05.869Z,96747.00
2022-11-27T23:26:32.767Z,96747.00
2022-11-27T23:28:59.689Z,96764.00
2022-11-27T23:31:31.053Z,96764.00
2022-11-27T23:34:01.593Z,96760.00
2022-11-27T23:36:30.313Z,96771.00
2022-11-27T23:38:59.734Z,96767.00
2022-11-27T23:41:26.858Z,96773.00
2022-11-27T23:43:54.982Z,96774.00
2022-11-27T23:46:26.269Z,96764.00
2022-11-27T23:48:57.545Z,96761.00
2022-11-27T23:51:28.083Z,96764.00
2022-11-27T23:53:55.076Z,96762.00
2022-11-27T23:56:25.544Z,96759.00
2022-11-27T23:58:53.946Z,96753.00
